createdAt,value
2018-08-24T00:00:13.084Z,23.50
2018-08-24T00:01:15.221Z,23.50
2018-08-24T00:02:17.404Z,23.50
2018-08-24T00:03:19.549Z,23.50
2018-08-24T00:04:21.748Z,23.50
2018-08-24T00:05:24.206Z,23.50
2018-08-24T00:06:26.376Z,23.50
2018-08-24T00:07:28.566Z,23.50
2018-08-24T00:08:30.893Z,23.50
2018-08-24T00:09:33.033Z,23.50
2018-08-24T00:10:35.172Z,23.50
2018-08-24T00:11:37.981Z,23.50
2018-08-24T00:12:40.145Z,23.50
2018-08-24T00:13:42.289Z,23.50
2018-08-24T00:14:44.413Z,23.50
2018-08-24T00:15:46.551Z,23.50
2018-08-24T00:16:48.708Z,23.50
2018-08-24T00:17:50.844Z,23.50
2018-08-24T00:18:52.973Z,23.50
2018-08-24T00:19:55.106Z,23.50
2018-08-24T00:20:57.240Z,23.50
2018-08-24T00:21:59.803Z,23.50
2018-08-24T00:23:01.941Z,23.50
2018-08-24T00:24:04.318Z,23.50
2018-08-24T00:25:06.457Z,23.50
2018-08-24T00:26:08.604Z,23.50
2018-08-24T00:27:12.602Z,23.50
2018-08-24T00:28:14.813Z,23.50
2018-08-24T00:29:16.965Z,23.50
2018-08-24T00:30:19.124Z,23.50
2018-08-24T00:31:21.269Z,23.50
2018-08-24T00:32:23.425Z,23.50
2018-08-24T00:33:25.685Z,23.60
2018-08-24T00:34:27.805Z,23.50
2018-08-24T00:35:30.204Z,23.50
2018-08-24T00:36:32.685Z,23.50
2018-08-24T00:37:34.823Z,23.40
2018-08-24T00:38:37.493Z,23.50
2018-08-24T00:39:42.415Z,23.40
2018-08-24T00:40:44.577Z,23.50
2018-08-24T00:41:46.729Z,23.40
2018-08-24T00:42:49.011Z,23.40
2018-08-24T00:43:51.040Z,23.40
2018-08-24T00:44:53.198Z,23.40
2018-08-24T00:45:55.316Z,23.40
2018-08-24T00:46:57.486Z,23.40
2018-08-24T00:47:59.874Z,23.40
2018-08-24T00:49:02.032Z,23.40
2018-08-24T00:50:04.188Z,23.30
2018-08-24T00:51:06.859Z,23.30
2018-08-24T00:52:09.338Z,23.30
2018-08-24T00:53:11.482Z,23.30
2018-08-24T00:54:13.637Z,23.30
2018-08-24T00:55:15.781Z,23.30
2018-08-24T00:56:17.937Z,23.30
2018-08-24T00:57:20.310Z,23.30
2018-08-24T00:58:22.775Z,23.30
2018-08-24T00:59:24.954Z,23.30
2018-08-24T01:00:42.996Z,23.30
2018-08-24T01:01:45.141Z,23.30
2018-08-24T01:02:47.281Z,23.30
2018-08-24T01:03:49.432Z,23.30
2018-08-24T01:04:51.576Z,23.30
2018-08-24T01:05:53.937Z,23.30
2018-08-24T01:06:56.154Z,23.30
2018-08-24T01:08:03.998Z,23.30
2018-08-24T01:09:07.857Z,23.30
2018-08-24T01:10:16.017Z,23.30
2018-08-24T01:11:18.197Z,23.30
2018-08-24T01:12:20.353Z,23.30
2018-08-24T01:13:22.607Z,23.30
2018-08-24T01:14:24.816Z,23.20
2018-08-24T01:15:33.074Z,23.20
2018-08-24T01:16:40.937Z,23.20
2018-08-24T01:17:48.760Z,23.30
2018-08-24T01:18:51.249Z,23.30
2018-08-24T01:19:53.397Z,23.20
2018-08-24T01:20:55.978Z,23.20
2018-08-24T01:21:58.105Z,23.20
2018-08-24T01:23:00.245Z,23.10
2018-08-24T01:24:02.384Z,23.10
2018-08-24T01:25:04.605Z,23.10
2018-08-24T01:26:06.788Z,23.10
2018-08-24T01:27:09.190Z,23.10
2018-08-24T01:28:11.485Z,23.10
2018-08-24T01:29:13.989Z,23.10
2018-08-24T01:30:16.215Z,23.10
2018-08-24T01:31:19.113Z,23.20
2018-08-24T01:32:21.475Z,23.10
2018-08-24T01:33:23.714Z,23.20
2018-08-24T01:34:25.981Z,23.20
2018-08-24T01:35:28.389Z,23.20
2018-08-24T01:36:30.803Z,23.20
2018-08-24T01:37:33.040Z,23.20
2018-08-24T01:38:35.311Z,23.20
2018-08-24T01:39:37.541Z,23.20
2018-08-24T01:40:39.750Z,23.20
2018-08-24T01:41:42.062Z,23.30
2018-08-24T01:42:44.363Z,23.30
2018-08-24T01:43:53.353Z,23.30
2018-08-24T01:44:55.540Z,23.30
2018-08-24T01:46:03.429Z,23.30
2018-08-24T01:47:05.932Z,23.30
2018-08-24T01:48:09.289Z,23.20
2018-08-24T01:49:11.553Z,23.30
2018-08-24T01:50:13.838Z,23.40
2018-08-24T01:51:16.068Z,23.30
2018-08-24T01:52:18.237Z,23.30
2018-08-24T01:53:20.490Z,23.30
2018-08-24T01:54:22.665Z,23.30
2018-08-24T01:55:24.860Z,23.30
2018-08-24T01:56:27.062Z,23.20
2018-08-24T01:57:29.358Z,23.20
2018-08-24T01:58:31.637Z,23.10
2018-08-24T01:59:33.835Z,23.10
2018-08-24T02:00:36.067Z,23.10
2018-08-24T02:01:38.350Z,23.10
2018-08-24T02:02:40.676Z,23.10
2018-08-24T02:03:42.914Z,23.10
2018-08-24T02:04:45.162Z,23.10
2018-08-24T02:05:47.394Z,23.10
2018-08-24T02:06:49.597Z,23.10
2018-08-24T02:07:51.745Z,23.00
2018-08-24T02:08:53.883Z,23.10
2018-08-24T02:09:56.045Z,23.10
2018-08-24T02:10:58.165Z,23.10
2018-08-24T02:12:00.301Z,23.10
2018-08-24T02:13:08.414Z,23.10
2018-08-24T02:14:15.189Z,23.10
2018-08-24T02:15:17.361Z,23.10
2018-08-24T02:16:19.823Z,23.10
2018-08-24T02:17:27.733Z,23.10
2018-08-24T02:19:39.049Z,23.00
2018-08-24T02:20:46.758Z,23.00
2018-08-24T02:21:54.616Z,23.00
2018-08-24T02:22:59.310Z,22.90
2018-08-24T02:24:01.468Z,22.80
2018-08-24T02:25:03.633Z,22.80
2018-08-24T02:26:05.781Z,22.80
2018-08-24T02:27:07.934Z,22.90
2018-08-24T02:28:10.069Z,22.80
2018-08-24T02:29:12.633Z,22.90
2018-08-24T02:30:14.784Z,22.90
2018-08-24T02:31:16.994Z,22.90
2018-08-24T02:32:19.053Z,22.90
2018-08-24T02:33:21.168Z,22.90
2018-08-24T02:34:23.313Z,23.00
2018-08-24T02:35:25.481Z,22.90
2018-08-24T02:36:27.617Z,22.90
2018-08-24T02:37:30.080Z,22.90
2018-08-24T02:38:32.372Z,23.00
2018-08-24T02:39:34.510Z,22.90
2018-08-24T02:40:36.679Z,22.90
2018-08-24T02:41:39.529Z,22.80
2018-08-24T02:42:41.685Z,22.80
2018-08-24T02:43:43.919Z,22.90
2018-08-24T02:44:46.067Z,22.90
2018-08-24T02:45:48.217Z,22.80
2018-08-24T02:46:50.364Z,22.80
2018-08-24T02:47:52.521Z,22.80
2018-08-24T02:48:54.642Z,22.80
2018-08-24T02:49:56.784Z,22.80
2018-08-24T02:50:58.942Z,22.80
2018-08-24T02:52:01.074Z,22.80
2018-08-24T02:53:03.540Z,22.70
2018-08-24T02:54:05.715Z,22.70
2018-08-24T02:55:07.878Z,22.80
2018-08-24T02:56:10.309Z,22.80
2018-08-24T02:57:12.748Z,22.80
2018-08-24T02:58:14.854Z,22.70
2018-08-24T02:59:17.027Z,22.70
2018-08-24T03:00:19.161Z,22.70
2018-08-24T03:01:21.637Z,22.70
2018-08-24T03:02:23.837Z,22.70
2018-08-24T03:03:25.985Z,22.70
2018-08-24T03:04:28.142Z,22.70
2018-08-24T03:05:30.462Z,22.70
2018-08-24T03:06:32.524Z,22.60
2018-08-24T03:07:35.091Z,22.60
2018-08-24T03:08:37.269Z,22.60
2018-08-24T03:09:39.413Z,22.60
2018-08-24T03:10:41.541Z,22.60
2018-08-24T03:11:43.679Z,22.70
2018-08-24T03:12:45.799Z,22.70
2018-08-24T03:13:47.959Z,22.70
2018-08-24T03:14:50.351Z,22.70
2018-08-24T03:15:52.506Z,22.70
2018-08-24T03:17:00.647Z,22.70
2018-08-24T03:18:02.817Z,22.70
2018-08-24T03:19:04.961Z,22.60
2018-08-24T03:20:07.140Z,22.60
2018-08-24T03:21:09.504Z,22.60
2018-08-24T03:22:11.653Z,22.60
2018-08-24T03:23:13.785Z,22.60
2018-08-24T03:24:15.930Z,22.60
2018-08-24T03:25:18.086Z,22.60
2018-08-24T03:26:20.241Z,22.60
2018-08-24T03:27:22.418Z,22.60
2018-08-24T03:28:24.681Z,22.50
2018-08-24T03:29:26.858Z,22.50
2018-08-24T03:30:29.054Z,22.60
2018-08-24T03:31:31.205Z,22.60
2018-08-24T03:32:33.330Z,22.50
2018-08-24T03:33:35.485Z,22.50
2018-08-24T03:34:37.728Z,22.50
2018-08-24T03:35:39.854Z,22.50
2018-08-24T03:36:42.017Z,22.50
2018-08-24T03:37:44.159Z,22.50
2018-08-24T03:38:46.301Z,22.50
2018-08-24T03:39:48.669Z,22.50
2018-08-24T03:40:50.857Z,22.50
2018-08-24T03:41:52.976Z,22.50
2018-08-24T03:42:55.142Z,22.40
2018-08-24T03:43:57.285Z,22.50
2018-08-24T03:44:59.413Z,22.50
2018-08-24T03:46:01.868Z,22.60
2018-08-24T03:47:04.147Z,22.60
2018-08-24T03:48:06.307Z,22.60
2018-08-24T03:49:08.434Z,22.60
2018-08-24T03:50:10.615Z,22.60
2018-08-24T03:51:12.786Z,22.60
2018-08-24T03:52:14.933Z,22.60
2018-08-24T03:53:17.187Z,22.60
2018-08-24T03:54:19.831Z,22.60
2018-08-24T03:55:21.988Z,22.60
2018-08-24T03:56:24.136Z,22.60
2018-08-24T03:57:26.275Z,22.60
2018-08-24T03:58:28.652Z,22.60
2018-08-24T03:59:30.782Z,22.60
2018-08-24T04:00:33.009Z,22.60
2018-08-24T04:01:35.139Z,22.60
2018-08-24T04:02:37.271Z,22.60
2018-08-24T04:03:39.541Z,22.60
2018-08-24T04:04:41.684Z,22.60
2018-08-24T04:05:43.848Z,22.70
2018-08-24T04:06:46.253Z,22.70
2018-08-24T04:07:48.383Z,22.70
2018-08-24T04:08:50.534Z,22.70
2018-08-24T04:09:52.663Z,22.70
2018-08-24T04:10:54.805Z,22.70
2018-08-24T04:11:56.961Z,22.60
2018-08-24T04:12:59.114Z,22.70
2018-08-24T04:14:01.242Z,22.80
2018-08-24T04:15:03.389Z,22.70
2018-08-24T04:16:05.538Z,22.70
2018-08-24T04:17:13.614Z,22.70
2018-08-24T04:18:15.741Z,22.70
2018-08-24T04:19:26.704Z,22.60
2018-08-24T04:20:28.813Z,22.70
2018-08-24T04:21:30.960Z,22.70
2018-08-24T04:22:33.109Z,22.70
2018-08-24T04:23:35.492Z,22.60
2018-08-24T04:24:37.624Z,22.60
2018-08-24T04:25:39.772Z,22.70
2018-08-24T04:26:42.222Z,22.70
2018-08-24T04:27:44.658Z,22.70
2018-08-24T04:28:46.799Z,22.70
2018-08-24T04:29:48.940Z,22.60
2018-08-24T04:30:51.080Z,22.70
2018-08-24T04:31:53.329Z,22.70
2018-08-24T04:32:55.528Z,22.70
2018-08-24T04:33:57.928Z,22.70
2018-08-24T04:35:00.062Z,22.70
2018-08-24T04:36:03.137Z,22.70
2018-08-24T04:37:05.288Z,22.70
2018-08-24T04:38:07.591Z,22.80
2018-08-24T04:39:11.119Z,22.80
2018-08-24T04:40:13.346Z,22.80
2018-08-24T04:41:15.434Z,22.80
2018-08-24T04:42:17.604Z,22.80
2018-08-24T04:43:19.746Z,22.70
2018-08-24T04:44:21.881Z,22.80
2018-08-24T04:45:24.084Z,22.80
2018-08-24T04:46:26.169Z,22.70
2018-08-24T04:47:28.436Z,22.70
2018-08-24T04:48:30.597Z,22.70
2018-08-24T04:49:32.737Z,22.70
2018-08-24T04:50:34.856Z,22.70
2018-08-24T04:51:37.000Z,22.70
2018-08-24T04:52:39.161Z,22.70
2018-08-24T04:53:41.300Z,22.70
2018-08-24T04:54:43.646Z,22.70
2018-08-24T04:55:45.868Z,22.70
2018-08-24T04:56:48.021Z,22.70
2018-08-24T04:57:50.426Z,22.60
2018-08-24T04:58:52.573Z,22.60
2018-08-24T04:59:54.756Z,22.60
2018-08-24T05:00:57.010Z,22.60
2018-08-24T05:01:59.193Z,22.60
2018-08-24T05:03:01.347Z,22.70
2018-08-24T05:04:03.519Z,22.60
2018-08-24T05:05:06.685Z,22.70
2018-08-24T05:06:09.182Z,22.70
2018-08-24T05:07:11.338Z,22.70
2018-08-24T05:08:13.475Z,22.70
2018-08-24T05:09:15.622Z,22.70
2018-08-24T05:10:17.785Z,22.70
2018-08-24T05:11:19.953Z,22.70
2018-08-24T05:12:22.094Z,22.70
2018-08-24T05:13:24.248Z,22.70
2018-08-24T05:14:26.410Z,22.80
2018-08-24T05:15:28.562Z,22.70
2018-08-24T05:16:30.725Z,22.70
2018-08-24T05:17:32.877Z,22.90
2018-08-24T05:18:35.341Z,22.70
2018-08-24T05:19:37.491Z,22.70
2018-08-24T05:20:39.621Z,22.80
2018-08-24T05:21:41.777Z,22.70
2018-08-24T05:22:43.934Z,22.70
2018-08-24T05:23:46.181Z,22.70
2018-08-24T05:24:48.381Z,22.70
2018-08-24T05:25:50.513Z,22.70
2018-08-24T05:26:52.692Z,22.70
2018-08-24T05:27:54.833Z,22.70
2018-08-24T05:28:56.989Z,22.70
2018-08-24T05:29:59.174Z,22.70
2018-08-24T05:31:01.349Z,22.70
2018-08-24T05:32:03.507Z,22.70
2018-08-24T05:33:05.657Z,22.80
2018-08-24T05:34:07.809Z,22.80
2018-08-24T05:35:09.958Z,22.80
2018-08-24T05:36:12.160Z,22.80
2018-08-24T05:37:14.312Z,22.70
2018-08-24T05:38:16.478Z,22.80
2018-08-24T05:39:18.605Z,22.80
2018-08-24T05:40:20.749Z,22.80
2018-08-24T05:41:22.947Z,22.80
2018-08-24T05:42:25.052Z,22.80
2018-08-24T05:43:27.226Z,22.80
2018-08-24T05:44:29.379Z,22.80
2018-08-24T05:45:31.752Z,22.80
2018-08-24T05:46:33.913Z,22.90
2018-08-24T05:47:36.051Z,22.90
2018-08-24T05:48:38.190Z,22.90
2018-08-24T05:49:40.330Z,22.90
2018-08-24T05:50:42.594Z,22.90
2018-08-24T05:51:44.775Z,22.90
2018-08-24T05:52:47.132Z,22.90
2018-08-24T05:53:49.347Z,22.90
2018-08-24T05:54:51.481Z,22.90
2018-08-24T05:55:53.622Z,22.90
2018-08-24T05:56:55.761Z,23.00
2018-08-24T05:57:57.906Z,23.00
2018-08-24T05:59:00.081Z,23.00
2018-08-24T06:00:02.251Z,23.00
2018-08-24T06:01:04.425Z,23.00
2018-08-24T06:02:06.602Z,23.10
2018-08-24T06:03:09.325Z,23.10
2018-08-24T06:04:11.473Z,23.10
2018-08-24T06:05:13.613Z,23.10
2018-08-24T06:06:15.759Z,23.10
2018-08-24T06:07:17.897Z,23.10
2018-08-24T06:08:20.029Z,23.10
2018-08-24T06:09:22.178Z,23.10
2018-08-24T06:10:24.701Z,23.20
2018-08-24T06:12:33.789Z,23.20
2018-08-24T06:13:35.925Z,23.20
2018-08-24T06:14:38.040Z,23.20
2018-08-24T06:15:40.175Z,23.20
2018-08-24T06:16:49.764Z,23.20
2018-08-24T06:17:53.765Z,23.20
2018-08-24T06:18:55.911Z,23.30
2018-08-24T06:19:58.037Z,23.30
2018-08-24T06:21:00.176Z,23.30
2018-08-24T06:22:02.397Z,23.20
2018-08-24T06:23:04.635Z,23.30
2018-08-24T06:24:06.794Z,23.30
2018-08-24T06:25:08.980Z,23.30
2018-08-24T06:26:11.127Z,23.30
2018-08-24T06:27:13.291Z,23.30
2018-08-24T06:28:15.490Z,23.20
2018-08-24T06:29:17.675Z,23.20
2018-08-24T06:30:19.990Z,23.30
2018-08-24T06:31:22.399Z,23.30
2018-08-24T06:32:24.784Z,23.30
2018-08-24T06:33:26.925Z,23.30
2018-08-24T06:34:29.122Z,23.30
2018-08-24T06:35:31.262Z,23.40
2018-08-24T06:36:33.390Z,23.40
2018-08-24T06:37:35.529Z,23.40
2018-08-24T06:38:37.913Z,23.50
2018-08-24T06:39:40.066Z,23.50
2018-08-24T06:40:42.188Z,23.50
2018-08-24T06:41:44.410Z,23.50
2018-08-24T06:42:46.512Z,23.50
2018-08-24T06:43:48.746Z,23.50
2018-08-24T06:44:50.933Z,23.60
2018-08-24T06:45:53.081Z,23.60
2018-08-24T06:46:55.217Z,23.60
2018-08-24T06:47:57.582Z,23.60
2018-08-24T06:48:59.715Z,23.60
2018-08-24T06:50:01.893Z,23.60
2018-08-24T06:51:04.206Z,23.60
2018-08-24T06:52:06.384Z,23.70
2018-08-24T06:53:08.664Z,23.70
2018-08-24T06:54:10.733Z,23.70
2018-08-24T06:55:12.897Z,23.70
2018-08-24T06:56:15.034Z,23.80
2018-08-24T06:57:17.351Z,23.90
2018-08-24T06:58:19.504Z,23.90
2018-08-24T06:59:22.072Z,23.90
2018-08-24T07:00:32.146Z,23.90
2018-08-24T07:01:34.274Z,23.90
2018-08-24T07:02:36.953Z,23.90
2018-08-24T07:03:39.082Z,24.00
2018-08-24T07:04:41.205Z,23.90
2018-08-24T07:05:43.397Z,23.90
2018-08-24T07:06:45.499Z,23.90
2018-08-24T07:07:47.633Z,23.90
2018-08-24T07:08:49.786Z,23.90
2018-08-24T07:09:51.945Z,23.90
2018-08-24T07:10:54.232Z,23.90
2018-08-24T07:11:56.377Z,23.80
2018-08-24T07:12:58.660Z,23.80
2018-08-24T07:14:00.775Z,23.80
2018-08-24T07:15:02.941Z,23.80
2018-08-24T07:16:05.158Z,23.80
2018-08-24T07:17:07.306Z,23.80
2018-08-24T07:18:09.471Z,23.80
2018-08-24T07:19:11.869Z,23.90
2018-08-24T07:20:13.999Z,23.80
2018-08-24T07:21:16.197Z,23.70
2018-08-24T07:22:18.393Z,23.80
2018-08-24T07:23:20.778Z,23.80
2018-08-24T07:24:23.473Z,23.80
2018-08-24T07:25:25.613Z,23.80
2018-08-24T07:26:27.781Z,23.80
2018-08-24T07:27:29.939Z,23.90
2018-08-24T07:28:32.205Z,23.90
2018-08-24T07:29:34.341Z,23.90
2018-08-24T07:30:36.466Z,23.90
2018-08-24T07:31:38.601Z,23.90
2018-08-24T07:32:40.724Z,24.00
2018-08-24T07:33:42.858Z,24.00
2018-08-24T07:34:45.240Z,24.00
2018-08-24T07:35:47.612Z,24.00
2018-08-24T07:36:49.962Z,24.00
2018-08-24T07:37:52.097Z,24.00
2018-08-24T07:38:54.247Z,24.10
2018-08-24T07:39:56.854Z,23.90
2018-08-24T07:40:59.048Z,23.90
2018-08-24T07:42:01.246Z,24.00
2018-08-24T07:43:03.549Z,23.90
2018-08-24T07:44:05.762Z,23.90
2018-08-24T07:45:07.905Z,23.90
2018-08-24T07:46:10.046Z,23.90
2018-08-24T07:47:12.185Z,23.90
2018-08-24T07:48:14.337Z,23.90
2018-08-24T07:49:16.493Z,23.90
2018-08-24T07:50:18.641Z,24.00
2018-08-24T07:51:20.779Z,23.90
2018-08-24T07:52:22.913Z,23.90
2018-08-24T07:53:25.073Z,23.90
2018-08-24T07:54:27.216Z,23.90
2018-08-24T07:55:29.392Z,24.00
2018-08-24T07:56:31.516Z,24.00
2018-08-24T07:57:33.657Z,24.00
2018-08-24T07:58:35.831Z,24.00
2018-08-24T07:59:37.956Z,24.00
2018-08-24T08:00:40.101Z,24.00
2018-08-24T08:01:42.254Z,24.10
2018-08-24T08:02:44.813Z,24.10
2018-08-24T08:03:46.979Z,24.10
2018-08-24T08:04:49.140Z,24.10
2018-08-24T08:05:51.269Z,24.10
2018-08-24T08:06:53.433Z,24.20
2018-08-24T08:07:55.804Z,24.20
2018-08-24T08:08:58.368Z,24.20
2018-08-24T08:10:00.517Z,24.30
2018-08-24T08:11:02.726Z,24.30
2018-08-24T08:12:04.961Z,24.30
2018-08-24T08:13:08.226Z,24.30
2018-08-24T08:14:10.365Z,24.30
2018-08-24T08:15:12.531Z,24.30
2018-08-24T08:16:14.696Z,24.30
2018-08-24T08:17:16.838Z,24.30
2018-08-24T08:18:19.070Z,24.30
2018-08-24T08:19:21.177Z,24.30
2018-08-24T08:20:23.320Z,24.30
2018-08-24T08:21:25.808Z,24.30
2018-08-24T08:22:27.931Z,24.20
2018-08-24T08:23:30.409Z,24.20
2018-08-24T08:24:32.884Z,24.20
2018-08-24T08:25:35.028Z,24.20
2018-08-24T08:26:37.170Z,24.20
2018-08-24T08:27:39.355Z,24.20
2018-08-24T08:28:41.466Z,24.10
2018-08-24T08:29:49.409Z,24.10
2018-08-24T08:30:51.778Z,24.00
2018-08-24T08:31:53.979Z,24.00
2018-08-24T08:32:56.125Z,24.10
2018-08-24T08:33:58.298Z,24.00
2018-08-24T08:35:00.694Z,24.00
2018-08-24T08:36:02.846Z,24.00
2018-08-24T08:37:05.041Z,24.00
2018-08-24T08:38:07.227Z,23.90
2018-08-24T08:39:10.651Z,24.00
2018-08-24T08:40:12.807Z,24.00
2018-08-24T08:41:14.930Z,24.00
2018-08-24T08:42:17.104Z,24.10
2018-08-24T08:43:19.566Z,24.10
2018-08-24T08:44:21.699Z,24.10
2018-08-24T08:45:23.874Z,24.20
2018-08-24T08:46:25.992Z,24.20
2018-08-24T08:47:28.134Z,24.30
2018-08-24T08:48:30.326Z,24.30
2018-08-24T08:49:32.470Z,24.30
2018-08-24T08:50:34.627Z,24.30
2018-08-24T08:51:36.789Z,24.30
2018-08-24T08:52:38.937Z,24.30
2018-08-24T08:53:41.081Z,24.30
2018-08-24T08:54:43.208Z,24.40
2018-08-24T08:55:45.353Z,24.40
2018-08-24T08:56:47.491Z,24.40
2018-08-24T08:57:49.686Z,24.50
2018-08-24T08:58:51.843Z,24.50
2018-08-24T08:59:53.997Z,24.50
2018-08-24T09:00:56.130Z,24.50
2018-08-24T09:01:58.262Z,24.50
2018-08-24T09:03:00.430Z,24.50
2018-08-24T09:04:02.701Z,24.50
2018-08-24T09:05:05.393Z,24.40
2018-08-24T09:06:08.235Z,24.40
2018-08-24T09:07:10.630Z,24.40
2018-08-24T09:08:12.770Z,24.40
2018-08-24T09:09:14.926Z,24.40
2018-08-24T09:10:17.097Z,24.40
2018-08-24T09:11:19.565Z,24.50
2018-08-24T09:12:21.720Z,24.50
2018-08-24T09:13:23.857Z,24.40
2018-08-24T09:14:26.234Z,24.50
2018-08-24T09:15:28.379Z,24.50
2018-08-24T09:16:30.517Z,24.60
2018-08-24T09:17:38.353Z,24.60
2018-08-24T09:18:46.291Z,24.60
2018-08-24T09:19:54.171Z,24.60
2018-08-24T09:21:02.219Z,24.60
2018-08-24T09:22:10.403Z,24.50
2018-08-24T09:23:18.370Z,24.50
2018-08-24T09:24:26.519Z,24.50
2018-08-24T09:25:34.512Z,24.50
2018-08-24T09:26:42.757Z,24.50
2018-08-24T09:27:50.738Z,24.60
2018-08-24T09:28:53.757Z,24.60
2018-08-24T09:29:58.734Z,24.70
2018-08-24T09:31:04.186Z,24.80
2018-08-24T09:32:06.362Z,24.80
2018-08-24T09:33:08.473Z,25.00
2018-08-24T09:34:10.805Z,25.10
2018-08-24T09:35:12.943Z,25.20
2018-08-24T09:36:17.946Z,25.20
2018-08-24T09:37:25.910Z,25.30
2018-08-24T09:38:28.051Z,25.30
2018-08-24T09:39:30.212Z,25.30
2018-08-24T09:40:37.977Z,25.30
2018-08-24T09:41:40.138Z,25.30
2018-08-24T09:42:42.325Z,25.30
2018-08-24T09:43:50.113Z,25.20
2018-08-24T09:44:52.277Z,25.20
2018-08-24T09:45:54.468Z,25.30
2018-08-24T09:47:02.461Z,25.20
2018-08-24T09:48:10.795Z,25.20
2018-08-24T09:49:18.721Z,25.20
2018-08-24T09:50:26.495Z,25.30
2018-08-24T09:51:28.664Z,25.30
2018-08-24T09:52:30.810Z,25.30
2018-08-24T09:53:38.721Z,25.40
2018-08-24T09:54:40.863Z,25.40
2018-08-24T09:55:43.038Z,25.40
2018-08-24T09:56:45.239Z,25.40
2018-08-24T09:57:47.380Z,25.30
2018-08-24T09:58:49.525Z,25.30
2018-08-24T09:59:51.637Z,25.20
2018-08-24T10:00:59.657Z,25.20
2018-08-24T10:02:07.464Z,25.10
2018-08-24T10:03:15.297Z,25.00
2018-08-24T10:04:23.056Z,25.00
2018-08-24T10:05:30.989Z,25.00
2018-08-24T10:07:37.294Z,25.00
2018-08-24T10:08:45.089Z,24.80
2018-08-24T10:09:47.496Z,24.70
2018-08-24T10:10:49.624Z,24.60
2018-08-24T10:11:51.766Z,24.50
2018-08-24T10:12:53.891Z,24.40
2018-08-24T10:13:56.023Z,24.40
2018-08-24T10:14:58.173Z,24.30
2018-08-24T10:16:00.296Z,24.40
2018-08-24T10:17:02.461Z,24.50
2018-08-24T10:18:04.717Z,24.50
2018-08-24T10:19:09.592Z,24.60
2018-08-24T10:20:11.745Z,24.70
2018-08-24T10:21:13.914Z,24.70
2018-08-24T10:22:16.117Z,24.80
2018-08-24T10:23:18.253Z,24.80
2018-08-24T10:24:20.412Z,24.80
2018-08-24T10:25:22.569Z,24.90
2018-08-24T10:26:24.689Z,24.90
2018-08-24T10:27:26.891Z,24.90
2018-08-24T10:28:29.314Z,24.90
2018-08-24T10:29:31.471Z,24.90
2018-08-24T10:30:33.585Z,24.90
2018-08-24T10:31:35.989Z,24.90
2018-08-24T10:32:38.142Z,24.90
2018-08-24T10:33:40.320Z,25.00
2018-08-24T10:34:42.441Z,25.00
2018-08-24T10:35:44.600Z,25.10
2018-08-24T10:36:46.751Z,25.10
2018-08-24T10:37:48.877Z,25.20
2018-08-24T10:38:51.068Z,25.30
2018-08-24T10:39:53.432Z,25.20
2018-08-24T10:40:55.868Z,25.30
2018-08-24T10:41:57.941Z,25.30
2018-08-24T10:43:00.053Z,25.30
2018-08-24T10:44:02.288Z,25.30
2018-08-24T10:45:05.189Z,25.40
2018-08-24T10:46:07.661Z,25.40
2018-08-24T10:47:10.000Z,25.30
2018-08-24T10:48:12.157Z,25.40
2018-08-24T10:49:14.353Z,25.30
2018-08-24T10:50:16.789Z,25.40
2018-08-24T10:51:18.918Z,25.40
2018-08-24T10:52:21.060Z,25.40
2018-08-24T10:53:23.520Z,25.40
2018-08-24T10:54:25.685Z,25.40
2018-08-24T10:55:28.018Z,25.40
2018-08-24T10:56:30.121Z,25.40
2018-08-24T10:57:32.337Z,25.30
2018-08-24T10:58:34.511Z,25.20
2018-08-24T10:59:36.653Z,25.20
2018-08-24T11:00:38.797Z,25.10
2018-08-24T11:01:41.023Z,25.10
2018-08-24T11:02:43.165Z,25.00
2018-08-24T11:03:45.660Z,24.90
2018-08-24T11:04:47.767Z,24.80
2018-08-24T11:05:49.911Z,24.50
2018-08-24T11:06:52.061Z,24.30
2018-08-24T11:07:54.255Z,24.10
2018-08-24T11:08:56.397Z,24.00
2018-08-24T11:09:59.973Z,23.80
2018-08-24T11:11:02.492Z,23.60
2018-08-24T11:12:04.620Z,23.40
2018-08-24T11:13:06.816Z,23.20
2018-08-24T11:14:09.063Z,23.00
2018-08-24T11:15:11.492Z,22.70
2018-08-24T11:16:13.795Z,22.50
2018-08-24T11:17:16.023Z,22.40
2018-08-24T11:18:18.458Z,22.30
2018-08-24T11:19:20.589Z,22.10
2018-08-24T11:20:22.741Z,21.90
2018-08-24T11:21:25.233Z,21.80
2018-08-24T11:22:27.388Z,21.60
2018-08-24T11:23:29.532Z,21.40
2018-08-24T11:24:31.697Z,21.20
2018-08-24T11:25:33.860Z,21.10
2018-08-24T11:26:36.021Z,20.90
2018-08-24T11:27:38.167Z,20.90
2018-08-24T11:28:40.318Z,20.90
2018-08-24T11:29:42.486Z,20.80
2018-08-24T11:30:44.661Z,20.70
2018-08-24T11:31:46.818Z,20.70
2018-08-24T11:32:48.957Z,20.60
2018-08-24T11:33:51.084Z,20.60
2018-08-24T11:34:53.238Z,20.60
2018-08-24T11:35:55.446Z,20.50
2018-08-24T11:36:57.517Z,20.40
2018-08-24T11:37:59.668Z,20.40
2018-08-24T11:39:01.829Z,20.40
2018-08-24T11:40:04.129Z,20.30
2018-08-24T11:41:06.391Z,20.30
2018-08-24T11:42:08.603Z,20.30
2018-08-24T11:43:10.767Z,20.30
2018-08-24T11:44:12.911Z,20.30
2018-08-24T11:45:15.373Z,20.40
2018-08-24T11:46:17.546Z,20.30
2018-08-24T11:47:19.982Z,20.30
2018-08-24T11:48:22.141Z,20.20
2018-08-24T11:49:24.269Z,20.30
2018-08-24T11:50:26.406Z,20.30
2018-08-24T11:51:28.538Z,20.30
2018-08-24T11:52:30.925Z,20.30
2018-08-24T11:53:33.079Z,20.30
2018-08-24T11:54:35.257Z,20.30
2018-08-24T11:55:37.389Z,20.30
2018-08-24T11:56:39.537Z,20.30
2018-08-24T11:57:41.678Z,20.40
2018-08-24T11:58:43.809Z,20.40
2018-08-24T11:59:46.289Z,20.40
2018-08-24T12:00:48.669Z,20.50
2018-08-24T12:01:50.806Z,20.60
2018-08-24T12:02:53.561Z,20.70
2018-08-24T12:03:55.714Z,20.70
2018-08-24T12:04:58.063Z,20.70
2018-08-24T12:06:00.458Z,20.80
2018-08-24T12:07:02.917Z,20.80
2018-08-24T12:08:05.261Z,20.90
2018-08-24T12:09:07.941Z,20.90
2018-08-24T12:10:10.084Z,20.90
2018-08-24T12:11:12.226Z,21.10
2018-08-24T12:12:14.713Z,21.20
2018-08-24T12:13:16.876Z,21.30
2018-08-24T12:14:19.105Z,21.40
2018-08-24T12:15:21.204Z,21.50
2018-08-24T12:16:23.645Z,21.70
2018-08-24T12:17:32.609Z,21.80
2018-08-24T12:18:34.822Z,21.90
2018-08-24T12:19:37.539Z,22.00
2018-08-24T12:20:39.686Z,22.00
2018-08-24T12:21:41.928Z,22.00
2018-08-24T12:22:44.541Z,21.90
2018-08-24T12:23:46.711Z,21.90
2018-08-24T12:24:48.877Z,21.90
2018-08-24T12:25:51.030Z,21.80
2018-08-24T12:26:53.169Z,21.80
2018-08-24T12:27:55.324Z,21.80
2018-08-24T12:28:57.810Z,21.80
2018-08-24T12:29:59.965Z,21.70
2018-08-24T12:31:02.635Z,21.60
2018-08-24T12:32:05.101Z,21.60
2018-08-24T12:33:07.288Z,21.50
2018-08-24T12:34:09.498Z,21.50
2018-08-24T12:35:11.694Z,21.50
2018-08-24T12:36:15.489Z,21.60
2018-08-24T12:37:17.894Z,21.60
2018-08-24T12:38:20.063Z,21.70
2018-08-24T12:39:22.232Z,21.80
2018-08-24T12:40:24.653Z,21.80
2018-08-24T12:41:26.794Z,21.80
2018-08-24T12:42:28.950Z,21.80
2018-08-24T12:43:31.145Z,21.80
2018-08-24T12:44:33.308Z,21.80
2018-08-24T12:45:35.459Z,21.70
2018-08-24T12:46:37.671Z,21.60
2018-08-24T12:47:39.825Z,21.60
2018-08-24T12:48:41.965Z,21.60
2018-08-24T12:49:44.105Z,21.60
2018-08-24T12:50:46.325Z,21.60
2018-08-24T12:51:48.485Z,21.50
2018-08-24T12:52:51.167Z,21.40
2018-08-24T12:53:53.345Z,21.30
2018-08-24T12:54:55.598Z,21.20
2018-08-24T12:55:57.748Z,21.20
2018-08-24T12:56:59.986Z,21.10
2018-08-24T12:58:02.175Z,21.10
2018-08-24T12:59:04.951Z,21.10
2018-08-24T13:00:07.179Z,21.10
2018-08-24T13:01:16.123Z,21.10
2018-08-24T13:02:18.346Z,21.00
2018-08-24T13:03:20.651Z,21.00
2018-08-24T13:04:22.838Z,20.90
2018-08-24T13:05:25.010Z,20.90
2018-08-24T13:06:27.181Z,20.80
2018-08-24T13:07:29.358Z,20.80
2018-08-24T13:08:31.699Z,20.80
2018-08-24T13:09:33.900Z,20.70
2018-08-24T13:10:36.144Z,20.70
2018-08-24T13:11:38.365Z,20.70
2018-08-24T13:12:40.576Z,20.70
2018-08-24T13:13:42.766Z,20.70
2018-08-24T13:14:45.201Z,20.70
2018-08-24T13:15:47.380Z,20.70
2018-08-24T13:16:50.624Z,20.60
2018-08-24T13:17:53.337Z,20.60
2018-08-24T13:18:55.573Z,20.70
2018-08-24T13:19:57.746Z,20.70
2018-08-24T13:20:59.909Z,20.60
2018-08-24T13:22:02.162Z,20.60
2018-08-24T13:23:04.386Z,20.60
2018-08-24T13:24:06.593Z,20.60
2018-08-24T13:25:08.791Z,20.60
2018-08-24T13:26:10.978Z,20.60
2018-08-24T13:27:13.219Z,20.70
2018-08-24T13:28:15.429Z,20.70
2018-08-24T13:29:17.611Z,20.60